Карточка аэропорта UATT

Внимание!
Информация на этой странице в стадии наполнения.
Если вы не увидели какой-то информации, или заметили неточность - пожалуйста сообщите нам!
Спасибо!
Команда RU-STAFF
Название аэропортаАктобе
Название аэропорта (англ.)Aktobe
Превышение738 ft. (224.9 m.)
Координаты50°14.748', 57°12.402'
Высота перехода10000ft
Эшелон переходаFL120, QNH<733:FL130
Коды ответчика3440-3447, 3540-3547
Зона ОрВДАктобе РПИ (UATT)
Данные METARUATT 230500Z 32004MPS 280V360 CAVOK 24/15 Q1006 NOSIG RMK QFE735/0980
Проноз погоды (TAF)UATT 230500Z 2306/2406 30003MPS 9999 BKN033 TX29/2311Z TN18/2400Z TEMPO 2306/2315 33010MPS 3100 -SHRA BKN015CB BECMG 2318/2319 03005MPS BECMG 2322/2323 3100 -SHRA BKN015CB
NOTAMshow/hide NOTAM
AWOS   TABLE

Информация о ВПП

ВПП Длина ВПП (м.) Покрытие Курс ВПП Частота ILS
313202Бетон315111.7
133202Бетон135111.7

Диспетчерские позиции




Спутниковое изображение